createdAt,value
2022-09-24T00:00:10.922Z,1006.34
2022-09-24T00:00:46.155Z,1006.36
2022-09-24T00:01:21.741Z,1006.37
2022-09-24T00:01:56.952Z,1006.36
2022-09-24T00:02:32.134Z,1006.39
2022-09-24T00:03:07.449Z,1006.37
2022-09-24T00:03:42.751Z,1006.40
2022-09-24T00:04:17.951Z,1006.43
2022-09-24T00:04:53.309Z,1006.42
2022-09-24T00:05:28.411Z,1006.37
2022-09-24T00:06:03.628Z,1006.42
2022-09-24T00:06:38.729Z,1006.45
2022-09-24T00:07:13.944Z,1006.44
2022-09-24T00:07:49.147Z,1006.42
2022-09-24T00:08:24.349Z,1006.42
2022-09-24T00:08:59.784Z,1006.44
2022-09-24T00:09:35.102Z,1006.39
2022-09-24T00:10:10.417Z,1006.42
2022-09-24T00:10:45.944Z,1006.42
2022-09-24T00:11:21.336Z,1006.43
2022-09-24T00:11:56.660Z,1006.41
2022-09-24T00:12:31.895Z,1006.41
2022-09-24T00:13:07.212Z,1006.38
2022-09-24T00:13:42.404Z,1006.38
2022-09-24T00:14:17.622Z,1006.37
2022-09-24T00:14:52.851Z,1006.39
2022-09-24T00:15:28.045Z,1006.38
2022-09-24T00:16:03.312Z,1006.41
2022-09-24T00:16:38.402Z,1006.38
2022-09-24T00:17:13.410Z,1006.37
2022-09-24T00:17:48.641Z,1006.37
2022-09-24T00:18:24.130Z,1006.37
2022-09-24T00:18:59.564Z,1006.43
2022-09-24T00:19:34.692Z,1006.36
2022-09-24T00:20:10.088Z,1006.36
2022-09-24T00:20:45.281Z,1006.36
2022-09-24T00:21:20.384Z,1006.40
2022-09-24T00:21:55.806Z,1006.36
2022-09-24T00:22:31.105Z,1006.36
2022-09-24T00:23:06.321Z,1006.37
2022-09-24T00:23:41.622Z,1006.37
2022-09-24T00:24:16.861Z,1006.35
2022-09-24T00:24:52.406Z,1006.38
2022-09-24T00:25:27.823Z,1006.37
2022-09-24T00:26:03.138Z,1006.37
2022-09-24T00:26:38.326Z,1006.38
2022-09-24T00:27:13.554Z,1006.40
2022-09-24T00:27:48.799Z,1006.38
2022-09-24T00:28:24.251Z,1006.38
2022-09-24T00:28:59.357Z,1006.37
2022-09-24T00:29:34.510Z,1006.39
2022-09-24T00:30:09.607Z,1006.36
2022-09-24T00:30:44.729Z,1006.41
2022-09-24T00:31:20.074Z,1006.39
2022-09-24T00:31:55.540Z,1006.37
2022-09-24T00:32:30.453Z,1006.38
2022-09-24T00:33:05.593Z,1006.42
2022-09-24T00:33:40.930Z,1006.34
2022-09-24T00:34:16.350Z,1006.41
2022-09-24T00:34:51.774Z,1006.40
2022-09-24T00:35:27.085Z,1006.37
2022-09-24T00:36:02.291Z,1006.42
2022-09-24T00:36:37.500Z,1006.41
2022-09-24T00:37:12.724Z,1006.39
2022-09-24T00:37:48.046Z,1006.43
2022-09-24T00:38:23.461Z,1006.39
2022-09-24T00:38:58.763Z,1006.40
2022-09-24T00:39:33.916Z,1006.39
2022-09-24T00:40:09.358Z,1006.41
2022-09-24T00:40:44.948Z,1006.39
2022-09-24T00:41:20.195Z,1006.41
2022-09-24T00:41:55.586Z,1006.42
2022-09-24T00:42:30.794Z,1006.40
2022-09-24T00:43:05.897Z,1006.44
2022-09-24T00:43:41.424Z,1006.42
2022-09-24T00:44:16.925Z,1006.48
2022-09-24T00:44:52.280Z,1006.44
2022-09-24T00:45:27.482Z,1006.45
2022-09-24T00:46:02.808Z,1006.44
2022-09-24T00:46:38.340Z,1006.42
2022-09-24T00:47:13.179Z,1006.46
2022-09-24T00:47:48.403Z,1006.46
2022-09-24T00:48:23.599Z,1006.42
2022-09-24T00:48:59.026Z,1006.40
2022-09-24T00:49:34.474Z,1006.43
2022-09-24T00:50:10.020Z,1006.39
2022-09-24T00:50:45.122Z,1006.41
2022-09-24T00:51:20.491Z,1006.42
2022-09-24T00:51:56.271Z,1006.40
2022-09-24T00:52:31.804Z,1006.38
2022-09-24T00:53:07.135Z,1006.38
2022-09-24T00:53:42.347Z,1006.36
2022-09-24T00:54:17.675Z,1006.35
2022-09-24T00:54:53.062Z,1006.36
2022-09-24T00:55:28.257Z,1006.36
2022-09-24T00:56:03.368Z,1006.31
2022-09-24T00:56:38.602Z,1006.30
2022-09-24T00:57:14.225Z,1006.32
2022-09-24T00:57:49.550Z,1006.30
2022-09-24T00:58:24.767Z,1006.29
2022-09-24T00:58:59.878Z,1006.26
2022-09-24T00:59:35.088Z,1006.26
2022-09-24T01:00:10.565Z,1006.25
2022-09-24T01:00:45.896Z,1006.24
2022-09-24T01:01:21.250Z,1006.27
2022-09-24T01:01:56.255Z,1006.25
2022-09-24T01:02:31.576Z,1006.27
2022-09-24T01:03:07.075Z,1006.24
2022-09-24T01:03:42.480Z,1006.27
2022-09-24T01:04:17.406Z,1006.32
2022-09-24T01:04:55.745Z,1006.29
2022-09-24T01:05:27.638Z,1006.27
2022-09-24T01:06:02.894Z,1006.26
2022-09-24T01:06:38.305Z,1006.26
2022-09-24T01:07:13.431Z,1006.27
2022-09-24T01:07:48.888Z,1006.29
2022-09-24T01:08:24.187Z,1006.24
2022-09-24T01:08:59.333Z,1006.28
2022-09-24T01:09:34.737Z,1006.29
2022-09-24T01:10:09.972Z,1006.31
2022-09-24T01:10:45.279Z,1006.30
2022-09-24T01:11:20.674Z,1006.31
2022-09-24T01:11:56.016Z,1006.32
2022-09-24T01:12:31.305Z,1006.30
2022-09-24T01:13:06.563Z,1006.30
2022-09-24T01:13:43.564Z,1006.30
2022-09-24T01:14:16.768Z,1006.31
2022-09-24T01:14:52.005Z,1006.30
2022-09-24T01:15:27.025Z,1006.31
2022-09-24T01:16:02.488Z,1006.31
2022-09-24T01:16:37.674Z,1006.30
2022-09-24T01:17:13.139Z,1006.28
2022-09-24T01:17:48.291Z,1006.25
2022-09-24T01:18:23.587Z,1006.26
2022-09-24T01:18:58.806Z,1006.31
2022-09-24T01:19:33.609Z,1006.27
2022-09-24T01:20:08.857Z,1006.26
2022-09-24T01:20:44.158Z,1006.29
2022-09-24T01:21:19.577Z,1006.29
2022-09-24T01:21:54.912Z,1006.27
2022-09-24T01:22:30.128Z,1006.27
2022-09-24T01:23:05.236Z,1006.26
2022-09-24T01:23:42.744Z,1006.28
2022-09-24T01:24:15.662Z,1006.28
2022-09-24T01:24:50.778Z,1006.24
2022-09-24T01:25:26.127Z,1006.28
2022-09-24T01:26:01.562Z,1006.30
2022-09-24T01:26:37.056Z,1006.32
2022-09-24T01:27:12.671Z,1006.27
2022-09-24T01:27:47.878Z,1006.28
2022-09-24T01:28:23.004Z,1006.27
2022-09-24T01:28:58.662Z,1006.30
2022-09-24T01:29:33.866Z,1006.26
2022-09-24T01:30:09.091Z,1006.28
2022-09-24T01:30:44.187Z,1006.24
2022-09-24T01:31:19.238Z,1006.26
2022-09-24T01:31:54.478Z,1006.29
2022-09-24T01:32:32.509Z,1006.30
2022-09-24T01:33:04.900Z,1006.30
2022-09-24T01:33:40.325Z,1006.33
2022-09-24T01:34:15.769Z,1006.28
2022-09-24T01:34:50.898Z,1006.25
2022-09-24T01:35:26.022Z,1006.26
2022-09-24T01:36:01.434Z,1006.28
2022-09-24T01:36:36.791Z,1006.26
2022-09-24T01:37:12.175Z,1006.27
2022-09-24T01:37:47.199Z,1006.24
2022-09-24T01:38:22.515Z,1006.22
2022-09-24T01:38:57.740Z,1006.21
2022-09-24T01:39:33.046Z,1006.20
2022-09-24T01:40:08.276Z,1006.21
2022-09-24T01:40:43.371Z,1006.20
2022-09-24T01:41:18.750Z,1006.21
2022-09-24T01:41:54.263Z,1006.22
2022-09-24T01:42:29.568Z,1006.23
2022-09-24T01:43:04.677Z,1006.23
2022-09-24T01:43:39.894Z,1006.26
2022-09-24T01:44:15.212Z,1006.23
2022-09-24T01:44:50.442Z,1006.24
2022-09-24T01:45:25.874Z,1006.27
2022-09-24T01:46:01.073Z,1006.25
2022-09-24T01:46:36.412Z,1006.23
2022-09-24T01:47:11.788Z,1006.27
2022-09-24T01:47:46.785Z,1006.29
2022-09-24T01:48:21.942Z,1006.22
2022-09-24T01:48:57.128Z,1006.19
2022-09-24T01:49:32.153Z,1006.20
2022-09-24T01:50:07.490Z,1006.13
2022-09-24T01:50:42.517Z,1006.13
2022-09-24T01:51:17.656Z,1006.12
2022-09-24T01:51:52.677Z,1006.14
2022-09-24T01:52:28.390Z,1006.18
2022-09-24T01:53:03.404Z,1006.18
2022-09-24T01:53:38.538Z,1006.20
2022-09-24T01:54:14.171Z,1006.16
2022-09-24T01:54:49.587Z,1006.13
2022-09-24T01:55:24.725Z,1006.07
2022-09-24T01:55:59.995Z,1006.11
2022-09-24T01:56:35.010Z,1006.08
2022-09-24T01:57:10.315Z,1006.08
2022-09-24T01:57:45.733Z,1006.05
2022-09-24T01:58:21.154Z,1006.04
2022-09-24T01:58:56.280Z,1006.00
2022-09-24T01:59:31.600Z,1005.99
2022-09-24T02:00:06.801Z,1005.98
2022-09-24T02:00:42.025Z,1005.96
2022-09-24T02:01:17.748Z,1005.97
2022-09-24T02:01:53.153Z,1005.97
2022-09-24T02:02:28.518Z,1005.97
2022-09-24T02:03:03.433Z,1005.95
2022-09-24T02:03:38.782Z,1005.94
2022-09-24T02:04:13.810Z,1005.97
2022-09-24T02:04:49.040Z,1005.95
2022-09-24T02:05:24.265Z,1005.93
2022-09-24T02:05:59.304Z,1005.93
2022-09-24T02:06:34.416Z,1005.90
2022-09-24T02:07:09.845Z,1005.90
2022-09-24T02:07:45.089Z,1005.89
2022-09-24T02:08:20.519Z,1005.89
2022-09-24T02:08:56.216Z,1005.86
2022-09-24T02:09:31.641Z,1005.87
2022-09-24T02:10:07.060Z,1005.85
2022-09-24T02:10:42.286Z,1005.83
2022-09-24T02:11:17.545Z,1005.85
2022-09-24T02:11:52.852Z,1005.84
2022-09-24T02:12:28.393Z,1005.85
2022-09-24T02:13:03.490Z,1005.84
2022-09-24T02:13:38.619Z,1005.82
2022-09-24T02:14:13.856Z,1005.81
2022-09-24T02:14:49.301Z,1005.83
2022-09-24T02:15:26.776Z,1005.81
2022-09-24T02:16:00.107Z,1005.82
2022-09-24T02:16:35.198Z,1005.80
2022-09-24T02:17:10.465Z,1005.81
2022-09-24T02:17:45.685Z,1005.78
2022-09-24T02:18:20.707Z,1005.80
2022-09-24T02:18:55.818Z,1005.78
2022-09-24T02:19:31.080Z,1005.79
2022-09-24T02:20:05.993Z,1005.79
2022-09-24T02:20:41.400Z,1005.79
2022-09-24T02:21:16.717Z,1005.76
2022-09-24T02:21:51.948Z,1005.78
2022-09-24T02:22:27.271Z,1005.76
2022-09-24T02:23:02.377Z,1005.74
2022-09-24T02:23:37.411Z,1005.74
2022-09-24T02:24:12.818Z,1005.76
2022-09-24T02:24:48.037Z,1005.75
2022-09-24T02:25:23.252Z,1005.75
2022-09-24T02:25:58.554Z,1005.79
2022-09-24T02:26:33.674Z,1005.76
2022-09-24T02:27:08.883Z,1005.73
2022-09-24T02:27:44.200Z,1005.75
2022-09-24T02:28:19.532Z,1005.74
2022-09-24T02:28:55.066Z,1005.75
2022-09-24T02:29:30.092Z,1005.75
2022-09-24T02:30:05.279Z,1005.76
2022-09-24T02:30:40.702Z,1005.74
2022-09-24T02:31:15.926Z,1005.75
2022-09-24T02:31:51.278Z,1005.77
2022-09-24T02:32:26.570Z,1005.76
2022-09-24T02:33:01.812Z,1005.76
2022-09-24T02:33:36.922Z,1005.76
2022-09-24T02:34:12.075Z,1005.75
2022-09-24T02:34:47.387Z,1005.75
2022-09-24T02:35:22.705Z,1005.73
2022-09-24T02:35:57.826Z,1005.74
2022-09-24T02:36:32.942Z,1005.75
2022-09-24T02:37:08.251Z,1005.75
2022-09-24T02:37:43.716Z,1005.77
2022-09-24T02:38:18.838Z,1005.73
2022-09-24T02:38:54.264Z,1005.73
2022-09-24T02:39:29.496Z,1005.75
2022-09-24T02:40:04.527Z,1005.76
2022-09-24T02:40:39.660Z,1005.75
2022-09-24T02:41:15.068Z,1005.72
2022-09-24T02:41:50.985Z,1005.75
2022-09-24T02:42:26.083Z,1005.74
2022-09-24T02:43:01.435Z,1005.73
2022-09-24T02:43:36.527Z,1005.73
2022-09-24T02:44:11.763Z,1005.76
2022-09-24T02:44:46.971Z,1005.74
2022-09-24T02:45:22.390Z,1005.71
2022-09-24T02:45:58.001Z,1005.72
2022-09-24T02:46:33.165Z,1005.70
2022-09-24T02:47:08.245Z,1005.75
2022-09-24T02:47:43.551Z,1005.75
2022-09-24T02:48:18.830Z,1005.73
2022-09-24T02:48:54.146Z,1005.74
2022-09-24T02:49:29.152Z,1005.74
2022-09-24T02:50:04.576Z,1005.75
2022-09-24T02:50:39.885Z,1005.73
2022-09-24T02:51:15.155Z,1005.78
2022-09-24T02:51:50.459Z,1005.75
2022-09-24T02:52:25.813Z,1005.75
2022-09-24T02:53:01.134Z,1005.77
2022-09-24T02:53:36.368Z,1005.74
2022-09-24T02:54:11.816Z,1005.74
2022-09-24T02:54:46.807Z,1005.72
2022-09-24T02:55:22.280Z,1005.73
2022-09-24T02:55:57.602Z,1005.72
2022-09-24T02:56:32.841Z,1005.72
2022-09-24T02:57:08.065Z,1005.69
2022-09-24T02:57:43.455Z,1005.72
2022-09-24T02:58:18.708Z,1005.71
2022-09-24T02:58:53.814Z,1005.71
2022-09-24T02:59:29.251Z,1005.73
2022-09-24T03:00:04.778Z,1005.71
2022-09-24T03:00:40.003Z,1005.71
2022-09-24T03:01:15.350Z,1005.69
2022-09-24T03:01:50.692Z,1005.68
2022-09-24T03:02:25.840Z,1005.66
2022-09-24T03:03:01.011Z,1005.68
2022-09-24T03:03:36.301Z,1005.65
2022-09-24T03:04:11.408Z,1005.69
2022-09-24T03:04:46.767Z,1005.63
2022-09-24T03:05:21.861Z,1005.67
2022-09-24T03:05:56.980Z,1005.64
2022-09-24T03:06:32.382Z,1005.65
2022-09-24T03:07:07.834Z,1005.62
2022-09-24T03:07:43.439Z,1005.63
2022-09-24T03:08:18.760Z,1005.65
2022-09-24T03:08:53.886Z,1005.64
2022-09-24T03:09:29.013Z,1005.64
2022-09-24T03:10:04.139Z,1005.61
2022-09-24T03:10:39.343Z,1005.63
2022-09-24T03:11:18.574Z,1005.61
2022-09-24T03:11:49.987Z,1005.65
2022-09-24T03:12:25.309Z,1005.64
2022-09-24T03:13:00.722Z,1005.65
2022-09-24T03:13:35.818Z,1005.64
2022-09-24T03:14:11.338Z,1005.66
2022-09-24T03:14:46.486Z,1005.65
2022-09-24T03:15:21.704Z,1005.63
2022-09-24T03:15:57.105Z,1005.64
2022-09-24T03:16:32.181Z,1005.64
2022-09-24T03:17:07.243Z,1005.63
2022-09-24T03:17:42.483Z,1005.62
2022-09-24T03:18:17.794Z,1005.62
2022-09-24T03:18:52.822Z,1005.62
2022-09-24T03:19:28.055Z,1005.58
2022-09-24T03:20:03.485Z,1005.60
2022-09-24T03:20:38.709Z,1005.57
2022-09-24T03:21:14.035Z,1005.59
2022-09-24T03:21:49.234Z,1005.60
2022-09-24T03:22:24.356Z,1005.57
2022-09-24T03:22:59.569Z,1005.56
2022-09-24T03:23:34.906Z,1005.57
2022-09-24T03:24:10.172Z,1005.59
2022-09-24T03:24:45.234Z,1005.57
2022-09-24T03:25:20.538Z,1005.57
2022-09-24T03:25:57.532Z,1005.56
2022-09-24T03:26:30.658Z,1005.56
2022-09-24T03:27:05.697Z,1005.55
2022-09-24T03:27:40.707Z,1005.57
2022-09-24T03:28:16.133Z,1005.57
2022-09-24T03:28:51.524Z,1005.58
2022-09-24T03:29:26.852Z,1005.57
2022-09-24T03:30:02.070Z,1005.56
2022-09-24T03:30:37.225Z,1005.58
2022-09-24T03:31:12.493Z,1005.53
2022-09-24T03:31:47.889Z,1005.55
2022-09-24T03:32:22.853Z,1005.55
2022-09-24T03:32:57.897Z,1005.54
2022-09-24T03:33:33.101Z,1005.55
2022-09-24T03:34:08.347Z,1005.57
2022-09-24T03:34:43.517Z,1005.57
2022-09-24T03:35:18.671Z,1005.59
2022-09-24T03:35:53.872Z,1005.58
2022-09-24T03:36:29.625Z,1005.57
2022-09-24T03:37:04.929Z,1005.58
2022-09-24T03:37:40.321Z,1005.54
2022-09-24T03:38:15.728Z,1005.57
2022-09-24T03:38:51.161Z,1005.54
2022-09-24T03:39:26.381Z,1005.54
2022-09-24T03:40:01.666Z,1005.56
2022-09-24T03:40:36.879Z,1005.52
2022-09-24T03:41:12.219Z,1005.50
2022-09-24T03:41:47.323Z,1005.53
2022-09-24T03:42:22.878Z,1005.53
2022-09-24T03:42:58.395Z,1005.53
2022-09-24T03:43:33.728Z,1005.53
2022-09-24T03:44:09.343Z,1005.53
2022-09-24T03:44:44.535Z,1005.55
2022-09-24T03:45:19.841Z,1005.51
2022-09-24T03:45:55.101Z,1005.46
2022-09-24T03:46:30.553Z,1005.47
2022-09-24T03:47:05.472Z,1005.50
2022-09-24T03:47:40.671Z,1005.47
2022-09-24T03:48:16.101Z,1005.46
2022-09-24T03:48:51.413Z,1005.45
2022-09-24T03:49:26.534Z,1005.43
2022-09-24T03:50:01.532Z,1005.45
2022-09-24T03:50:36.944Z,1005.48
2022-09-24T03:51:12.440Z,1005.45
2022-09-24T03:51:47.765Z,1005.47
2022-09-24T03:52:22.971Z,1005.47
2022-09-24T03:52:58.098Z,1005.47
2022-09-24T03:53:33.395Z,1005.46
2022-09-24T03:54:08.783Z,1005.46
2022-09-24T03:54:44.025Z,1005.43
2022-09-24T03:55:19.255Z,1005.46
2022-09-24T03:55:54.357Z,1005.46
2022-09-24T03:56:30.195Z,1005.47
2022-09-24T03:57:05.384Z,1005.47
2022-09-24T03:57:40.749Z,1005.44
2022-09-24T03:58:16.085Z,1005.47
2022-09-24T03:58:51.398Z,1005.45
2022-09-24T03:59:26.489Z,1005.45
2022-09-24T04:00:01.813Z,1005.46
2022-09-24T04:00:40.838Z,1005.43
2022-09-24T04:01:12.261Z,1005.43
2022-09-24T04:01:47.639Z,1005.43
2022-09-24T04:02:22.520Z,1005.40
2022-09-24T04:02:58.000Z,1005.41
2022-09-24T04:03:33.365Z,1005.42
2022-09-24T04:04:08.756Z,1005.41
2022-09-24T04:04:43.787Z,1005.40
2022-09-24T04:05:19.089Z,1005.41
2022-09-24T04:05:54.303Z,1005.41
2022-09-24T04:06:29.929Z,1005.42
2022-09-24T04:07:05.152Z,1005.37
2022-09-24T04:07:40.455Z,1005.40
2022-09-24T04:08:15.713Z,1005.39
2022-09-24T04:08:50.921Z,1005.40
2022-09-24T04:09:25.929Z,1005.45
2022-09-24T04:10:01.045Z,1005.42
2022-09-24T04:10:36.380Z,1005.39
2022-09-24T04:11:11.487Z,1005.37
2022-09-24T04:11:46.830Z,1005.41
2022-09-24T04:12:22.239Z,1005.38
2022-09-24T04:12:57.375Z,1005.36
2022-09-24T04:13:32.779Z,1005.38
2022-09-24T04:14:07.984Z,1005.36
2022-09-24T04:14:43.013Z,1005.36
2022-09-24T04:15:18.268Z,1005.39
2022-09-24T04:16:00.652Z,1005.36
2022-09-24T04:16:36.239Z,1005.36
2022-09-24T04:17:11.307Z,1005.33
2022-09-24T04:17:46.636Z,1005.35
2022-09-24T04:18:22.229Z,1005.35
2022-09-24T04:18:57.582Z,1005.36
2022-09-24T04:19:32.927Z,1005.35
2022-09-24T04:20:08.261Z,1005.31
2022-09-24T04:20:43.343Z,1005.37
2022-09-24T04:21:18.654Z,1005.34
2022-09-24T04:21:53.914Z,1005.35
2022-09-24T04:22:29.538Z,1005.29
2022-09-24T04:23:04.670Z,1005.31
2022-09-24T04:23:40.046Z,1005.30
2022-09-24T04:24:15.809Z,1005.28
2022-09-24T04:24:50.849Z,1005.31
2022-09-24T04:25:26.049Z,1005.31
2022-09-24T04:26:01.220Z,1005.31
2022-09-24T04:26:36.602Z,1005.32
2022-09-24T04:27:11.697Z,1005.31
2022-09-24T04:27:47.043Z,1005.31
2022-09-24T04:28:22.206Z,1005.29
2022-09-24T04:28:57.556Z,1005.29
2022-09-24T04:29:32.805Z,1005.30
2022-09-24T04:30:08.142Z,1005.28
2022-09-24T04:30:43.487Z,1005.26
2022-09-24T04:31:18.946Z,1005.28
2022-09-24T04:31:54.257Z,1005.28
2022-09-24T04:32:29.711Z,1005.25
2022-09-24T04:33:05.565Z,1005.26
2022-09-24T04:33:40.983Z,1005.28
2022-09-24T04:34:16.522Z,1005.23
2022-09-24T04:34:51.697Z,1005.26
2022-09-24T04:35:27.037Z,1005.25
2022-09-24T04:36:02.234Z,1005.24
2022-09-24T04:36:37.618Z,1005.25
2022-09-24T04:37:12.881Z,1005.25
2022-09-24T04:37:48.064Z,1005.21
2022-09-24T04:38:23.267Z,1005.20
2022-09-24T04:38:58.496Z,1005.21
2022-09-24T04:39:33.977Z,1005.23
2022-09-24T04:40:09.281Z,1005.19
2022-09-24T04:40:44.518Z,1005.20
2022-09-24T04:41:20.063Z,1005.21
2022-09-24T04:41:55.619Z,1005.17
2022-09-24T04:42:30.753Z,1005.19
2022-09-24T04:43:05.858Z,1005.20
2022-09-24T04:43:41.093Z,1005.17
2022-09-24T04:44:16.423Z,1005.17
2022-09-24T04:44:55.893Z,1005.19
2022-09-24T04:45:27.292Z,1005.17
2022-09-24T04:46:02.408Z,1005.18
2022-09-24T04:46:37.866Z,1005.19
2022-09-24T04:47:13.101Z,1005.15
2022-09-24T04:47:48.251Z,1005.18
2022-09-24T04:48:23.502Z,1005.16
2022-09-24T04:48:59.032Z,1005.18
2022-09-24T04:49:34.446Z,1005.18
2022-09-24T04:50:09.464Z,1005.18
2022-09-24T04:50:46.359Z,1005.19
2022-09-24T04:51:19.955Z,1005.17
2022-09-24T04:51:55.312Z,1005.15
2022-09-24T04:52:30.851Z,1005.17
2022-09-24T04:53:06.322Z,1005.14
2022-09-24T04:53:41.381Z,1005.14
2022-09-24T04:54:16.248Z,1005.13
2022-09-24T04:54:51.472Z,1005.17
2022-09-24T04:55:26.829Z,1005.16
2022-09-24T04:56:02.231Z,1005.20
2022-09-24T04:56:37.681Z,1005.19
2022-09-24T04:57:13.107Z,1005.17
2022-09-24T04:57:48.250Z,1005.16
2022-09-24T04:58:23.421Z,1005.15
2022-09-24T04:58:59.083Z,1005.18
2022-09-24T04:59:34.512Z,1005.19
2022-09-24T05:00:09.743Z,1005.19
2022-09-24T05:00:44.891Z,1005.16
2022-09-24T05:01:20.503Z,1005.22
2022-09-24T05:01:55.775Z,1005.19
2022-09-24T05:02:30.979Z,1005.20
2022-09-24T05:03:06.294Z,1005.19
2022-09-24T05:03:41.535Z,1005.21
2022-09-24T05:04:16.794Z,1005.18
2022-09-24T05:04:52.017Z,1005.21
2022-09-24T05:05:27.223Z,1005.20
2022-09-24T05:06:02.973Z,1005.23
2022-09-24T05:06:38.138Z,1005.25
2022-09-24T05:07:13.076Z,1005.23
2022-09-24T05:07:48.453Z,1005.23
2022-09-24T05:08:23.798Z,1005.25
2022-09-24T05:08:58.993Z,1005.20
2022-09-24T05:09:34.255Z,1005.22
2022-09-24T05:10:09.763Z,1005.20
2022-09-24T05:10:44.918Z,1005.22
2022-09-24T05:11:20.345Z,1005.22
2022-09-24T05:11:55.580Z,1005.22
2022-09-24T05:12:30.806Z,1005.22
2022-09-24T05:13:06.042Z,1005.24
2022-09-24T05:13:41.320Z,1005.23
2022-09-24T05:14:16.657Z,1005.26
2022-09-24T05:14:52.118Z,1005.24
2022-09-24T05:15:27.250Z,1005.28
2022-09-24T05:16:02.609Z,1005.26
2022-09-24T05:16:37.872Z,1005.26
2022-09-24T05:17:13.126Z,1005.29
2022-09-24T05:17:48.249Z,1005.31
2022-09-24T05:18:23.536Z,1005.27
2022-09-24T05:18:58.732Z,1005.28
2022-09-24T05:19:34.500Z,1005.32
2022-09-24T05:20:09.736Z,1005.28
2022-09-24T05:20:44.994Z,1005.35
2022-09-24T05:21:20.339Z,1005.31
2022-09-24T05:21:55.551Z,1005.33
2022-09-24T05:22:30.857Z,1005.34
2022-09-24T05:23:05.853Z,1005.34
2022-09-24T05:23:41.489Z,1005.34
2022-09-24T05:24:16.553Z,1005.34
2022-09-24T05:24:51.873Z,1005.31
2022-09-24T05:25:27.108Z,1005.34
2022-09-24T05:26:02.333Z,1005.31
2022-09-24T05:26:37.724Z,1005.33
2022-09-24T05:27:12.947Z,1005.34
2022-09-24T05:27:48.257Z,1005.35
2022-09-24T05:28:23.573Z,1005.36
2022-09-24T05:28:58.702Z,1005.35
2022-09-24T05:29:33.795Z,1005.31
2022-09-24T05:30:09.236Z,1005.31
2022-09-24T05:30:44.480Z,1005.35
2022-09-24T05:31:20.052Z,1005.36
2022-09-24T05:31:55.075Z,1005.34
2022-09-24T05:32:30.271Z,1005.35
2022-09-24T05:33:05.807Z,1005.36
2022-09-24T05:33:41.176Z,1005.34
2022-09-24T05:34:16.319Z,1005.36
2022-09-24T05:34:51.530Z,1005.32
2022-09-24T05:35:27.171Z,1005.35
2022-09-24T05:36:02.326Z,1005.35
2022-09-24T05:36:37.559Z,1005.34
2022-09-24T05:37:13.155Z,1005.33
2022-09-24T05:37:48.560Z,1005.34
2022-09-24T05:38:23.926Z,1005.35
2022-09-24T05:38:59.169Z,1005.34
2022-09-24T05:39:34.847Z,1005.37
2022-09-24T05:40:10.116Z,1005.33
2022-09-24T05:40:45.895Z,1005.31
2022-09-24T05:41:21.176Z,1005.30
2022-09-24T05:41:56.329Z,1005.32
2022-09-24T05:42:31.710Z,1005.34
2022-09-24T05:43:06.988Z,1005.34
2022-09-24T05:43:42.195Z,1005.34
2022-09-24T05:44:17.541Z,1005.36
2022-09-24T05:44:52.644Z,1005.35
2022-09-24T05:45:28.057Z,1005.37
2022-09-24T05:46:03.462Z,1005.38
2022-09-24T05:46:38.651Z,1005.38
2022-09-24T05:47:13.935Z,1005.38
2022-09-24T05:47:49.035Z,1005.40
2022-09-24T05:48:24.361Z,1005.38
2022-09-24T05:48:59.606Z,1005.37
2022-09-24T05:49:34.807Z,1005.40
2022-09-24T05:50:10.987Z,1005.39
2022-09-24T05:50:46.414Z,1005.41
2022-09-24T05:51:22.054Z,1005.37
2022-09-24T05:51:57.392Z,1005.39
2022-09-24T05:52:32.633Z,1005.39
2022-09-24T05:53:07.932Z,1005.39
2022-09-24T05:53:43.166Z,1005.38
2022-09-24T05:54:18.786Z,1005.40
2022-09-24T05:54:54.249Z,1005.39
2022-09-24T05:55:32.385Z,1005.40
2022-09-24T05:56:04.524Z,1005.40
2022-09-24T05:56:40.082Z,1005.38
2022-09-24T05:57:15.074Z,1005.35
2022-09-24T05:57:50.275Z,1005.38
2022-09-24T05:58:25.906Z,1005.41
2022-09-24T05:59:01.565Z,1005.40
2022-09-24T05:59:37.014Z,1005.38
2022-09-24T06:00:12.182Z,1005.38
2022-09-24T06:00:47.509Z,1005.35
2022-09-24T06:01:22.842Z,1005.34
2022-09-24T06:01:57.840Z,1005.37
2022-09-24T06:02:33.371Z,1005.37
2022-09-24T06:03:08.670Z,1005.34
2022-09-24T06:03:43.839Z,1005.39
2022-09-24T06:04:19.373Z,1005.35
2022-09-24T06:04:54.905Z,1005.37
2022-09-24T06:05:30.362Z,1005.38
2022-09-24T06:06:05.523Z,1005.39
2022-09-24T06:06:40.731Z,1005.37
2022-09-24T06:07:15.994Z,1005.35
2022-09-24T06:07:51.422Z,1005.36
2022-09-24T06:08:26.856Z,1005.35
2022-09-24T06:09:02.291Z,1005.39
2022-09-24T06:09:37.658Z,1005.40
2022-09-24T06:10:12.995Z,1005.39
2022-09-24T06:10:48.814Z,1005.41
2022-09-24T06:11:23.965Z,1005.38
2022-09-24T06:11:59.214Z,1005.39
2022-09-24T06:12:34.511Z,1005.41
2022-09-24T06:13:09.891Z,1005.40
2022-09-24T06:13:45.394Z,1005.38
2022-09-24T06:14:20.817Z,1005.40
2022-09-24T06:14:56.162Z,1005.41
2022-09-24T06:15:31.460Z,1005.42
2022-09-24T06:16:06.850Z,1005.43
2022-09-24T06:16:42.259Z,1005.44
2022-09-24T06:17:17.449Z,1005.42
2022-09-24T06:17:53.035Z,1005.43
2022-09-24T06:18:28.248Z,1005.42
2022-09-24T06:19:03.945Z,1005.45
2022-09-24T06:19:39.389Z,1005.46
2022-09-24T06:20:14.641Z,1005.45
2022-09-24T06:20:49.671Z,1005.44
2022-09-24T06:21:24.690Z,1005.45
2022-09-24T06:21:59.819Z,1005.44
2022-09-24T06:22:35.403Z,1005.43
2022-09-24T06:23:10.931Z,1005.50
2022-09-24T06:23:45.963Z,1005.46
2022-09-24T06:24:21.178Z,1005.47
2022-09-24T06:24:56.617Z,1005.46
2022-09-24T06:25:32.130Z,1005.46
2022-09-24T06:26:07.474Z,1005.49
2022-09-24T06:26:42.895Z,1005.47
2022-09-24T06:27:18.108Z,1005.47
2022-09-24T06:27:53.318Z,1005.47
2022-09-24T06:28:29.101Z,1005.49
2022-09-24T06:29:05.387Z,1005.48
2022-09-24T06:29:40.291Z,1005.48
2022-09-24T06:30:15.374Z,1005.47
2022-09-24T06:30:50.566Z,1005.47
2022-09-24T06:31:25.806Z,1005.46
2022-09-24T06:32:00.819Z,1005.47
2022-09-24T06:32:36.178Z,1005.46
2022-09-24T06:33:11.375Z,1005.49
2022-09-24T06:33:46.776Z,1005.49
2022-09-24T06:34:22.118Z,1005.50
2022-09-24T06:34:59.253Z,1005.48
2022-09-24T06:35:32.818Z,1005.51
2022-09-24T06:36:07.954Z,1005.54
2022-09-24T06:36:43.219Z,1005.53
2022-09-24T06:37:18.352Z,1005.47
2022-09-24T06:37:53.479Z,1005.54
2022-09-24T06:38:28.669Z,1005.51
2022-09-24T06:39:04.111Z,1005.55
2022-09-24T06:39:39.788Z,1005.55
2022-09-24T06:40:15.515Z,1005.56
2022-09-24T06:40:50.910Z,1005.51
2022-09-24T06:41:26.142Z,1005.55
2022-09-24T06:42:01.333Z,1005.51
2022-09-24T06:42:36.654Z,1005.53
2022-09-24T06:43:12.378Z,1005.56
2022-09-24T06:43:47.690Z,1005.54
2022-09-24T06:44:22.895Z,1005.54
2022-09-24T06:44:58.313Z,1005.54
2022-09-24T06:45:36.673Z,1005.54
2022-09-24T06:46:13.711Z,1005.54
2022-09-24T06:46:49.148Z,1005.55
2022-09-24T06:47:24.435Z,1005.50
2022-09-24T06:47:59.874Z,1005.51
2022-09-24T06:48:35.383Z,1005.56
2022-09-24T06:49:10.572Z,1005.55
2022-09-24T06:49:45.700Z,1005.57
2022-09-24T06:50:20.909Z,1005.54
2022-09-24T06:50:56.139Z,1005.52
2022-09-24T06:51:31.220Z,1005.55
2022-09-24T06:52:06.514Z,1005.57
2022-09-24T06:52:41.841Z,1005.59
2022-09-24T06:53:17.026Z,1005.59
2022-09-24T06:53:52.377Z,1005.59
2022-09-24T06:54:27.541Z,1005.58
2022-09-24T06:55:02.584Z,1005.56
2022-09-24T06:55:37.897Z,1005.57
2022-09-24T06:56:13.183Z,1005.58
2022-09-24T06:56:48.290Z,1005.58
2022-09-24T06:57:28.648Z,1005.56
2022-09-24T06:57:58.884Z,1005.58
2022-09-24T06:58:34.298Z,1005.57
2022-09-24T06:59:10.236Z,1005.58
2022-09-24T06:59:45.894Z,1005.56
2022-09-24T07:00:21.090Z,1005.54
2022-09-24T07:00:56.330Z,1005.55
2022-09-24T07:01:31.488Z,1005.57
2022-09-24T07:02:06.551Z,1005.60
2022-09-24T07:02:41.763Z,1005.56
2022-09-24T07:03:17.096Z,1005.54
2022-09-24T07:03:52.290Z,1005.58
2022-09-24T07:04:27.675Z,1005.60
2022-09-24T07:05:03.096Z,1005.60
2022-09-24T07:05:43.247Z,1005.62
2022-09-24T07:06:13.565Z,1005.63
2022-09-24T07:06:48.980Z,1005.61